Missouri River (Missouri), Napolean (06894650)

StateMissouriLatestUnknown (77900 cfs)
RiverMissouri RiverRatingObservedEstimated
Updated2020-08-14 5:00 (48 minutes ago)Flood - The river is flooding. Obstacles can be treacherous or deadly. The river should be avoided at this stage for casual trips and definitely for the inexperienced. Trips should be attempted only with protective gear and equipment.Flood(none)(none)
Discharge77900 cfs (median: 63200 cfs)High - The river is high and potentially dangerous, especially for the young and / or inexperienced. Normal stream obstacles are sometimes difficult to navigate. Extended distances can be attempted, but canoe travel may not be advisable.High(none)(none)
Height12.96 feetGood - Conditions are ideal for a canoe or kayak. Boats typically will drag on fewer than one-quarter of riffles, if at all, and portages are unnecessary or rare. Normal float lengths can be attempted without a problem.Good(none)(none)
TrendRising (falling over 24 hours)Low - River is low but can still be floated. Some riffles are okay but most come with significant dragging and might need a portage. Float lengths should be reduced to accommodate low flow, dragging, and portages.Low(none)(none)
USGSExternal icon USGS Site (External icon Google Maps)Poor - River is too low to float comfortably. Most or all riffles will drag or must be portaged and some obstacles (such as slick shelf rock) cause undue problems. Avoid the river at this stage for casual paddling trips.Poor(none)(none)

Trending Data

Plot Image

Trips for Missouri River (Missouri), Napolean (06894650)

DateStartEndDistanceConditionDischargeHeightFishingDetails

A total of 0 rows are displayed.

Condition Descriptions

Fishing Conditions

Fish Species

Notes

Classic Trip List

The classic River Trips application is still available for use. It is updated with the new system using a data retrofit. It is no longer maintained. The original River Trips application is no longer updated (as of 1 Dec 2016) but can be checked for errors or for the condition of the data before it was converted to the new system.

Gauge Data Table

ObservationHeightDischargeMaximum
Discharge
Minimum
Discharge
Mean
Discharge
P05P10P20P25P50
(Median)
P75P80P90P95
2020-08-14 05:00 12.96 77900 132000 (2019) 45500 (2017) 76400 48800 53700 63200 106000 121000
2020-08-14 04:00 12.95 77800 132000 (2019) 45500 (2017) 76400 48800 53700 63200 106000 121000
2020-08-14 03:00 12.97 77900 132000 (2019) 45500 (2017) 76400 48800 53700 63200 106000 121000
2020-08-14 02:00 13.00 78200 132000 (2019) 45500 (2017) 76400 48800 53700 63200 106000 121000
2020-08-14 01:00 12.99 78100 132000 (2019) 45500 (2017) 76400 48800 53700 63200 106000 121000
2020-08-14 00:00 13.02 78300 132000 (2019) 45500 (2017) 76400 48800 53700 63200 106000 121000
2020-08-13 23:00 13.01 78300 126000 (2019) 45900 (2017) 73700 46600 47600 68000 103000 117000
2020-08-13 22:00 13.01 78300 126000 (2019) 45900 (2017) 73700 46600 47600 68000 103000 117000
2020-08-13 21:00 13.02 78300 126000 (2019) 45900 (2017) 73700 46600 47600 68000 103000 117000
2020-08-13 20:00 13.03 78400 126000 (2019) 45900 (2017) 73700 46600 47600 68000 103000 117000
2020-08-13 19:00 13.04 78500 126000 (2019) 45900 (2017) 73700 46600 47600 68000 103000 117000
2020-08-13 18:00 13.06 78600 126000 (2019) 45900 (2017) 73700 46600 47600 68000 103000 117000
2020-08-13 17:00 13.08 78800 126000 (2019) 45900 (2017) 73700 46600 47600 68000 103000 117000
2020-08-13 16:00 13.10 79000 126000 (2019) 45900 (2017) 73700 46600 47600 68000 103000 117000
2020-08-13 15:00 13.09 78900 126000 (2019) 45900 (2017) 73700 46600 47600 68000 103000 117000
2020-08-13 14:00 13.09 78900 126000 (2019) 45900 (2017) 73700 46600 47600 68000 103000 117000
2020-08-13 13:00 13.11 80200 126000 (2019) 45900 (2017) 73700 46600 47600 68000 103000 117000
2020-08-13 12:00 13.12 80300 126000 (2019) 45900 (2017) 73700 46600 47600 68000 103000 117000
2020-08-13 11:00 13.13 80400 126000 (2019) 45900 (2017) 73700 46600 47600 68000 103000 117000
2020-08-13 10:00 13.13 80400 126000 (2019) 45900 (2017) 73700 46600 47600 68000 103000 117000
2020-08-13 09:00 13.15 80500 126000 (2019) 45900 (2017) 73700 46600 47600 68000 103000 117000
2020-08-13 08:00 13.16 80600 126000 (2019) 45900 (2017) 73700 46600 47600 68000 103000 117000
2020-08-13 07:00 13.16 80600 126000 (2019) 45900 (2017) 73700 46600 47600 68000 103000 117000
2020-08-13 06:00 13.17 80700 126000 (2019) 45900 (2017) 73700 46600 47600 68000 103000 117000
2020-08-13 05:00 13.16 80600 126000 (2019) 45900 (2017) 73700 46600 47600 68000 103000 117000
2020-08-13 04:00 13.16 80600 126000 (2019) 45900 (2017) 73700 46600 47600 68000 103000 117000
2020-08-13 03:00 13.15 80500 126000 (2019) 45900 (2017) 73700 46600 47600 68000 103000 117000
2020-08-13 02:00 13.15 80500 126000 (2019) 45900 (2017) 73700 46600 47600 68000 103000 117000
2020-08-13 01:00 13.15 80500 126000 (2019) 45900 (2017) 73700 46600 47600 68000 103000 117000
2020-08-13 00:00 13.16 80600 126000 (2019) 45900 (2017) 73700 46600 47600 68000 103000 117000
2020-08-12 23:00 13.15 80500 122000 (2019) 46600 (2017) 75800 47100 47700 79500 102000 114000
2020-08-12 22:00 13.14 80400 122000 (2019) 46600 (2017) 75800 47100 47700 79500 102000 114000
2020-08-12 21:00 13.13 80400 122000 (2019) 46600 (2017) 75800 47100 47700 79500 102000 114000
2020-08-12 20:00 13.13 80400 122000 (2019) 46600 (2017) 75800 47100 47700 79500 102000 114000
2020-08-12 19:00 13.13 80400 122000 (2019) 46600 (2017) 75800 47100 47700 79500 102000 114000
2020-08-12 18:00 13.12 80300 122000 (2019) 46600 (2017) 75800 47100 47700 79500 102000 114000
2020-08-12 17:00 13.11 80200 122000 (2019) 46600 (2017) 75800 47100 47700 79500 102000 114000
2020-08-12 16:00 13.09 80100 122000 (2019) 46600 (2017) 75800 47100 47700 79500 102000 114000
2020-08-12 15:00 13.11 80200 122000 (2019) 46600 (2017) 75800 47100 47700 79500 102000 114000
2020-08-12 14:00 13.00 79300 122000 (2019) 46600 (2017) 75800 47100 47700 79500 102000 114000
2020-08-12 13:00 13.10 80100 122000 (2019) 46600 (2017) 75800 47100 47700 79500 102000 114000
2020-08-12 12:00 13.10 80100 122000 (2019) 46600 (2017) 75800 47100 47700 79500 102000 114000
2020-08-12 11:00 13.09 80100 122000 (2019) 46600 (2017) 75800 47100 47700 79500 102000 114000
2020-08-12 10:00 13.09 80100 122000 (2019) 46600 (2017) 75800 47100 47700 79500 102000 114000
2020-08-12 09:00 13.09 80100 122000 (2019) 46600 (2017) 75800 47100 47700 79500 102000 114000
2020-08-12 08:00 13.09 80100 122000 (2019) 46600 (2017) 75800 47100 47700 79500 102000 114000
2020-08-12 07:00 13.08 80000 122000 (2019) 46600 (2017) 75800 47100 47700 79500 102000 114000
2020-08-12 06:00 13.09 80100 122000 (2019) 46600 (2017) 75800 47100 47700 79500 102000 114000
2020-08-12 05:00 13.09 80100 122000 (2019) 46600 (2017) 75800 47100 47700 79500 102000 114000
2020-08-12 04:00 13.10 80100 122000 (2019) 46600 (2017) 75800 47100 47700 79500 102000 114000
2020-08-12 03:00 13.09 80100 122000 (2019) 46600 (2017) 75800 47100 47700 79500 102000 114000
2020-08-12 02:00 13.09 80100 122000 (2019) 46600 (2017) 75800 47100 47700 79500 102000 114000
2020-08-12 01:00 13.09 80100 122000 (2019) 46600 (2017) 75800 47100 47700 79500 102000 114000
2020-08-12 00:00 13.10 80100 122000 (2019) 46600 (2017) 75800 47100 47700 79500 102000 114000
2020-08-11 23:00 13.09 80100 121000 (2019) 47700 (2017) 77800 48000 48300 80100 106000 115000
2020-08-11 22:00 13.09 80100 121000 (2019) 47700 (2017) 77800 48000 48300 80100 106000 115000
2020-08-11 21:00 13.08 80000 121000 (2019) 47700 (2017) 77800 48000 48300 80100 106000 115000
2020-08-11 20:00 13.10 80100 121000 (2019) 47700 (2017) 77800 48000 48300 80100 106000 115000
2020-08-11 19:00 13.11 80200 121000 (2019) 47700 (2017) 77800 48000 48300 80100 106000 115000
2020-08-11 18:00 13.11 80200 121000 (2019) 47700 (2017) 77800 48000 48300 80100 106000 115000
2020-08-11 17:00 13.10 80100 121000 (2019) 47700 (2017) 77800 48000 48300 80100 106000 115000
2020-08-11 16:00 13.12 80300 121000 (2019) 47700 (2017) 77800 48000 48300 80100 106000 115000
2020-08-11 15:00 13.14 80400 121000 (2019) 47700 (2017) 77800 48000 48300 80100 106000 115000
2020-08-11 14:00 13.14 80400 121000 (2019) 47700 (2017) 77800 48000 48300 80100 106000 115000
2020-08-11 13:00 13.14 80400 121000 (2019) 47700 (2017) 77800 48000 48300 80100 106000 115000
2020-08-11 12:00 13.13 80400 121000 (2019) 47700 (2017) 77800 48000 48300 80100 106000 115000
2020-08-11 11:00 13.14 80400 121000 (2019) 47700 (2017) 77800 48000 48300 80100 106000 115000
2020-08-11 10:00 13.16 80600 121000 (2019) 47700 (2017) 77800 48000 48300 80100 106000 115000
2020-08-11 09:00 13.16 80600 121000 (2019) 47700 (2017) 77800 48000 48300 80100 106000 115000
2020-08-11 08:00 13.18 80800 121000 (2019) 47700 (2017) 77800 48000 48300 80100 106000 115000
2020-08-11 07:00 13.20 80900 121000 (2019) 47700 (2017) 77800 48000 48300 80100 106000 115000
2020-08-11 06:00 13.20 80900 121000 (2019) 47700 (2017) 77800 48000 48300 80100 106000 115000
2020-08-11 05:00 13.21 81000 121000 (2019) 47700 (2017) 77800 48000 48300 80100 106000 115000
2020-08-11 04:00 13.23 81200 121000 (2019) 47700 (2017) 77800 48000 48300 80100 106000 115000
2020-08-11 03:00 13.24 81200 121000 (2019) 47700 (2017) 77800 48000 48300 80100 106000 115000
2020-08-11 02:00 13.25 81300 121000 (2019) 47700 (2017) 77800 48000 48300 80100 106000 115000
2020-08-11 01:00 13.27 81500 121000 (2019) 47700 (2017) 77800 48000 48300 80100 106000 115000
2020-08-11 00:00 13.29 81600 121000 (2019) 47700 (2017) 77800 48000 48300 80100 106000 115000

A total of 78 rows are displayed for years 2015 through 2019.